Time;durP1;ratioP1;P1;durP2;ratioP2;P2;SDS_P1;SDS_P2;PMS_P1;PMS_P2;Temp;Humidity;BMP_temperature;BMP_pressure;BME280_temperature;BME280_humidity;BME280_pressure;Samples;Min_cycle;Max_cycle;Signal;HPM_P1;HPM_P2
2021/04/26 00:01:31;;;;;;;;;;;;;;;;;;5048350;28;870;-61
2021/04/26 00:03:56;;;;;;;;;;;;;;;;;;5048442;28;815;-60
2021/04/26 00:06:22;;;;;;;;;;;;;;;;;;5048843;28;854;-61
2021/04/26 00:08:47;;;;;;;;;;;;;;;;;;5049660;28;836;-60
2021/04/26 00:11:12;;;;;;;;;;;;;;;;;;5048577;28;815;-60
2021/04/26 00:13:38;;;;;;;;;;;;;;;;;;5048552;28;839;-61
2021/04/26 00:16:03;;;;;;;;;;;;;;;;;;5048440;28;1951;-61
2021/04/26 00:18:29;;;;;;;;;;;;;;;;;;5048264;28;784;-60
2021/04/26 00:20:54;;;;;;;;;;;;;;;;;;5048425;28;798;-60
2021/04/26 00:23:19;;;;;;;;;;;;;;;;;;5047861;28;875;-60
2021/04/26 00:25:45;;;;;;;;;;;;;;;;;;5050679;28;866;-61
2021/04/26 00:28:10;;;;;;;;;;;;;;;;;;5048099;28;886;-62
2021/04/26 00:30:36;;;;;;;;;;;;;;;;;;5047829;28;1063;-61
2021/04/26 00:33:01;;;;;;;;;;;;;;;;;;5048024;28;835;-60
2021/04/26 00:35:27;;;;;;;;;;;;;;;;;;5047834;28;807;-60
2021/04/26 00:37:53;;;;;;;;;;;;;;;;;;5047420;28;1890;-60
2021/04/26 00:40:20;;;;;;;;;;;;;;;;;;5048518;28;775;-61
2021/04/26 00:42:46;;;;;;;;;;;;;;;;;;5048287;28;838;-61
2021/04/26 00:45:12;;;;;;;;;;;;;;;;;;5029236;28;1142;-60
2021/04/26 00:47:41;;;;;;;;;;;;;;;;;;5027981;28;874;-60
2021/04/26 00:50:09;;;;;;;;;;;;;;;;;;5030690;28;1230;-60
2021/04/26 00:52:34;;;;;;;;;;;;;;;;;;5027886;28;890;-60
2021/04/26 00:55:00;;;;;;;;;;;;;;;;;;5027714;28;862;-60
2021/04/26 00:57:26;;;;;;;;;;;;;;;;;;5026337;28;1957;-60
2021/04/26 00:59:51;;;;;;;;;;;;;;;;;;5027823;28;929;-61
2021/04/26 01:02:17;;;;;;;;;;;;;;;;;;5028089;28;811;-61
2021/04/26 01:04:42;;;;;;;;;;;;;;;;;;5027497;28;843;-60
2021/04/26 01:07:07;;;;;;;;;;;;;;;;;;5027215;28;851;-60
2021/04/26 01:09:33;;;;;;;;;;;;;;;;;;5025764;28;919;-60
2021/04/26 01:12:11;;;;;;;;;;;;;;;;;;5026358;28;859;-61
2021/04/26 01:14:40;;;;;;;;;;;;;;;;;;5027436;28;847;-60
2021/04/26 01:17:09;;;;;;;;;;;;;;;;;;5027036;28;1965;-60
2021/04/26 01:19:44;;;;;;;;;;;;;;;;;;5026885;28;779;-60
2021/04/26 01:22:28;;;;;;;;;;;;;;;;;;5026840;28;764;-60
2021/04/26 01:24:53;;;;;;;;;;;;;;;;;;5026587;28;819;-60
2021/04/26 01:27:24;;;;;;;;;;;;;;;;;;5029462;28;933;-61
2021/04/26 01:29:50;;;;;;;;;;;;;;;;;;5027660;28;899;-60
2021/04/26 01:32:34;;;;;;;;;;;;;;;;;;5027081;28;808;-60
2021/04/26 01:35:00;;;;;;;;;;;;;;;;;;5025558;28;929;-61
2021/04/26 01:37:27;;;;;;;;;;;;;;;;;;5026716;28;1894;-60
2021/04/26 01:39:53;;;;;;;;;;;;;;;;;;5026838;28;1086;-60
2021/04/26 01:42:20;;;;;;;;;;;;;;;;;;5027499;28;890;-60
2021/04/26 01:44:46;;;;;;;;;;;;;;;;;;5041784;28;1150;-60
2021/04/26 01:47:12;;;;;;;;;;;;;;;;;;5046097;28;830;-61
2021/04/26 01:49:38;;;;;;;;;;;;;;;;;;5046057;28;851;-60
2021/04/26 01:52:08;;;;;;;;;;;;;;;;;;5045981;28;834;-60
2021/04/26 01:54:34;;;;;;;;;;;;;;;;;;5046133;28;795;-61
2021/04/26 01:56:59;;;;;;;;;;;;;;;;;;5045582;28;1912;-60
2021/04/26 01:59:25;;;;;;;;;;;;;;;;;;5045873;28;839;-62
2021/04/26 02:01:53;;;;;;;;;;;;;;;;;;5047242;28;862;-60
2021/04/26 02:04:20;;;;;;;;;;;;;;;;;;5045588;28;917;-60
2021/04/26 02:06:46;;;;;;;;;;;;;;;;;;5046583;28;839;-60
2021/04/26 02:09:11;;;;;;;;;;;;;;;;;;5046365;28;969;-60
2021/04/26 02:11:37;;;;;;;;;;;;;;;;;;5045119;28;850;-60
2021/04/26 02:14:02;;;;;;;;;;;;;;;;;;5043861;28;862;-61
2021/04/26 02:16:28;;;;;;;;;;;;;;;;;;5046047;28;1890;-61
2021/04/26 02:18:53;;;;;;;;;;;;;;;;;;5045385;28;897;-61
2021/04/26 02:21:18;;;;;;;;;;;;;;;;;;5046700;28;810;-60
2021/04/26 02:23:44;;;;;;;;;;;;;;;;;;5045835;28;937;-60
2021/04/26 02:26:10;;;;;;;;;;;;;;;;;;5045124;28;819;-60
2021/04/26 02:28:35;;;;;;;;;;;;;;;;;;5028688;28;1471;-60
2021/04/26 02:31:01;;;;;;;;;;;;;;;;;;5007815;28;815;-61
2021/04/26 02:33:31;;;;;;;;;;;;;;;;;;5019621;28;1379;-60
2021/04/26 02:36:17;;;;;;;;;;;;;;;;;;5025919;28;1898;-60
2021/04/26 02:38:46;;;;;;;;;;;;;;;;;;5025960;28;1083;-61
2021/04/26 02:41:16;;;;;;;;;;;;;;;;;;5025579;28;922;-60
2021/04/26 02:43:45;;;;;;;;;;;;;;;;;;5027179;28;1155;-60
2021/04/26 02:46:11;;;;;;;;;;;;;;;;;;5024569;28;820;-60
2021/04/26 02:48:39;;;;;;;;;;;;;;;;;;5025900;28;827;-60
2021/04/26 02:51:04;;;;;;;;;;;;;;;;;;5025580;28;834;-61
2021/04/26 02:53:32;;;;;;;;;;;;;;;;;;5025512;28;1987;-60
2021/04/26 02:56:00;;;;;;;;;;;;;;;;;;5013162;28;1898;-60
2021/04/26 02:58:26;;;;;;;;;;;;;;;;;;5025218;28;847;-60
2021/04/26 03:00:52;;;;;;;;;;;;;;;;;;5026335;28;894;-60
2021/04/26 03:03:18;;;;;;;;;;;;;;;;;;5025244;28;827;-60
2021/04/26 03:05:43;;;;;;;;;;;;;;;;;;5025658;28;795;-61
2021/04/26 03:08:10;;;;;;;;;;;;;;;;;;5025786;28;978;-60
2021/04/26 03:10:35;;;;;;;;;;;;;;;;;;5025185;28;787;-60
2021/04/26 03:13:01;;;;;;;;;;;;;;;;;;5025250;28;824;-60
2021/04/26 03:15:27;;;;;;;;;;;;;;;;;;5025375;28;990;-61
2021/04/26 03:17:53;;;;;;;;;;;;;;;;;;5026517;28;2000;-60
2021/04/26 03:20:20;;;;;;;;;;;;;;;;;;5024417;28;1176;-60
2021/04/26 03:22:46;;;;;;;;;;;;;;;;;;5024726;28;831;-60
2021/04/26 03:25:12;;;;;;;;;;;;;;;;;;5026015;28;726;-60
2021/04/26 03:27:41;;;;;;;;;;;;;;;;;;5024870;28;2654;-60
2021/04/26 03:30:06;;;;;;;;;;;;;;;;;;5020439;28;922;-59
2021/04/26 03:32:32;;;;;;;;;;;;;;;;;;5027503;28;1041;-60
2021/04/26 03:34:57;;;;;;;;;;;;;;;;;;5028362;28;791;-61
2021/04/26 03:37:24;;;;;;;;;;;;;;;;;;5029398;28;1949;-60
2021/04/26 03:39:49;;;;;;;;;;;;;;;;;;5027794;28;1093;-60
2021/04/26 03:42:15;;;;;;;;;;;;;;;;;;5029241;28;830;-62
2021/04/26 03:44:44;;;;;;;;;;;;;;;;;;5043092;28;1095;-60
2021/04/26 03:47:10;;;;;;;;;;;;;;;;;;5047625;28;933;-61
2021/04/26 03:49:36;;;;;;;;;;;;;;;;;;5048992;28;851;-61
2021/04/26 03:52:01;;;;;;;;;;;;;;;;;;5048705;28;870;-60
2021/04/26 03:54:27;;;;;;;;;;;;;;;;;;5047157;28;862;-60
2021/04/26 03:56:52;;;;;;;;;;;;;;;;;;5049129;28;1981;-59
2021/04/26 03:59:17;;;;;;;;;;;;;;;;;;5047373;28;870;-60
2021/04/26 04:01:43;;;;;;;;;;;;;;;;;;5048442;28;906;-62
2021/04/26 04:04:09;;;;;;;;;;;;;;;;;;5048082;28;835;-61
2021/04/26 04:06:34;;;;;;;;;;;;;;;;;;5048331;28;798;-61
2021/04/26 04:09:00;;;;;;;;;;;;;;;;;;5048209;28;827;-60
2021/04/26 04:11:26;;;;;;;;;;;;;;;;;;5048337;28;834;-62
2021/04/26 04:13:51;;;;;;;;;;;;;;;;;;5048041;28;1170;-60
2021/04/26 04:16:17;;;;;;;;;;;;;;;;;;5047953;28;1964;-60
2021/04/26 04:18:42;;;;;;;;;;;;;;;;;;5048077;28;803;-60
2021/04/26 04:21:08;;;;;;;;;;;;;;;;;;5047746;28;791;-60
2021/04/26 04:23:33;;;;;;;;;;;;;;;;;;5047344;28;874;-61
2021/04/26 04:25:58;;;;;;;;;;;;;;;;;;5048078;28;894;-60
2021/04/26 04:28:24;;;;;;;;;;;;;;;;;;5050419;28;890;-60
2021/04/26 04:30:49;;;;;;;;;;;;;;;;;;5049127;28;850;-60
2021/04/26 04:33:15;;;;;;;;;;;;;;;;;;5046885;28;1428;-60
2021/04/26 04:35:41;;;;;;;;;;;;;;;;;;5047335;28;1886;-61
2021/04/26 04:38:06;;;;;;;;;;;;;;;;;;5046430;28;815;-61
2021/04/26 04:40:32;;;;;;;;;;;;;;;;;;5047468;28;828;-61
2021/04/26 04:42:57;;;;;;;;;;;;;;;;;;5047565;28;826;-61
2021/04/26 04:45:22;;;;;;;;;;;;;;;;;;5028133;28;1166;-60
2021/04/26 04:47:48;;;;;;;;;;;;;;;;;;5027279;28;820;-60
2021/04/26 04:50:14;;;;;;;;;;;;;;;;;;5027312;28;835;-60
2021/04/26 04:52:40;;;;;;;;;;;;;;;;;;5027548;28;836;-60
2021/04/26 04:55:05;;;;;;;;;;;;;;;;;;5027735;28;858;-61
2021/04/26 04:57:31;;;;;;;;;;;;;;;;;;5027232;28;1906;-63
2021/04/26 04:59:56;;;;;;;;;;;;;;;;;;5027593;28;977;-64
2021/04/26 05:02:22;;;;;;;;;;;;;;;;;;5029327;28;1062;-61
2021/04/26 05:04:47;;;;;;;;;;;;;;;;;;5027436;28;886;-61
2021/04/26 05:07:12;;;;;;;;;;;;;;;;;;5027187;28;863;-60
2021/04/26 05:09:38;;;;;;;;;;;;;;;;;;5027192;28;893;-59
2021/04/26 05:12:03;;;;;;;;;;;;;;;;;;5027047;28;808;-60
2021/04/26 05:14:30;;;;;;;;;;;;;;;;;;5027166;28;874;-61
2021/04/26 05:16:57;;;;;;;;;;;;;;;;;;5027528;28;1894;-61
2021/04/26 05:19:22;;;;;;;;;;;;;;;;;;5027933;28;823;-60
2021/04/26 05:21:47;;;;;;;;;;;;;;;;;;5026932;28;950;-60
2021/04/26 05:24:13;;;;;;;;;;;;;;;;;;5026616;28;851;-60
2021/04/26 05:26:38;;;;;;;;;;;;;;;;;;5026766;28;803;-61
2021/04/26 05:29:04;;;;;;;;;;;;;;;;;;5026968;28;877;-59
2021/04/26 05:31:29;;;;;;;;;;;;;;;;;;5026862;28;862;-60
2021/04/26 05:33:54;;;;;;;;;;;;;;;;;;5027316;28;807;-60
2021/04/26 05:36:20;;;;;;;;;;;;;;;;;;5025807;28;1898;-60
2021/04/26 05:38:45;;;;;;;;;;;;;;;;;;5025172;28;874;-61
2021/04/26 05:41:10;;;;;;;;;;;;;;;;;;5026896;28;875;-59
2021/04/26 05:43:36;;;;;;;;;;;;;;;;;;5031976;28;1063;-60
2021/04/26 05:46:01;;;;;;;;;;;;;;;;;;5046584;28;886;-60
2021/04/26 05:48:27;;;;;;;;;;;;;;;;;;5045956;28;910;-61
2021/04/26 05:50:53;;;;;;;;;;;;;;;;;;5041777;28;1179;-60
2021/04/26 05:53:20;;;;;;;;;;;;;;;;;;5025947;28;1167;-60
2021/04/26 05:55:45;;;;;;;;;;;;;;;;;;5025760;28;1910;-60
2021/04/26 05:58:10;;;;;;;;;;;;;;;;;;5026255;28;1251;-60
2021/04/26 06:00:36;;;;;;;;;;;;;;;;;;5025113;28;1274;-60
2021/04/26 06:03:01;;;;;;;;;;;;;;;;;;5025523;28;862;-60
2021/04/26 06:05:27;;;;;;;;;;;;;;;;;;5026137;28;894;-62
2021/04/26 06:07:52;;;;;;;;;;;;;;;;;;5026838;28;985;-61
2021/04/26 06:10:18;;;;;;;;;;;;;;;;;;5026157;28;799;-60
2021/04/26 06:12:43;;;;;;;;;;;;;;;;;;5026396;28;1180;-61
2021/04/26 06:15:09;;;;;;;;;;;;;;;;;;5026801;28;873;-62
2021/04/26 06:17:34;;;;;;;;;;;;;;;;;;5026119;28;1901;-60
2021/04/26 06:19:59;;;;;;;;;;;;;;;;;;5024915;28;854;-60
2021/04/26 06:22:25;;;;;;;;;;;;;;;;;;5026182;28;847;-61
2021/04/26 06:24:50;;;;;;;;;;;;;;;;;;5026301;28;808;-61
2021/04/26 06:27:15;;;;;;;;;;;;;;;;;;5024652;28;1188;-61
2021/04/26 06:29:41;;;;;;;;;;;;;;;;;;5026213;28;1255;-61
2021/04/26 06:32:06;;;;;;;;;;;;;;;;;;5026229;28;1239;-61
2021/04/26 06:34:31;;;;;;;;;;;;;;;;;;5026533;28;910;-61
2021/04/26 06:36:57;;;;;;;;;;;;;;;;;;5026697;28;1998;-62
2021/04/26 06:39:23;;;;;;;;;;;;;;;;;;5037135;28;1329;-61
2021/04/26 06:41:49;;;;;;;;;;;;;;;;;;5042405;28;1366;-61
2021/04/26 06:44:14;;;;;;;;;;;;;;;;;;5029519;28;1201;-60
2021/04/26 06:46:39;;;;;;;;;;;;;;;;;;5025255;28;1168;-61
2021/04/26 06:49:05;;;;;;;;;;;;;;;;;;5024888;28;1211;-61
2021/04/26 06:51:30;;;;;;;;;;;;;;;;;;5026247;28;807;-60
2021/04/26 06:53:56;;;;;;;;;;;;;;;;;;5026824;28;1152;-61
2021/04/26 06:56:21;;;;;;;;;;;;;;;;;;5025961;28;1975;-60
2021/04/26 06:58:46;;;;;;;;;;;;;;;;;;5027283;28;1052;-61
2021/04/26 07:01:12;;;;;;;;;;;;;;;;;;5024825;28;807;-63
2021/04/26 07:03:37;;;;;;;;;;;;;;;;;;5025726;28;819;-62
2021/04/26 07:06:03;;;;;;;;;;;;;;;;;;5025197;28;835;-61
2021/04/26 07:08:28;;;;;;;;;;;;;;;;;;5024019;28;1906;-62
2021/04/26 07:10:54;;;;;;;;;;;;;;;;;;5017772;28;1610;-62
2021/04/26 07:13:19;;;;;;;;;;;;;;;;;;5011617;28;1664;-59
2021/04/26 07:15:45;;;;;;;;;;;;;;;;;;5024812;28;803;-59
2021/04/26 07:18:10;;;;;;;;;;;;;;;;;;5015136;28;1616;-60
2021/04/26 07:20:36;;;;;;;;;;;;;;;;;;5006093;28;863;-59
2021/04/26 07:23:01;;;;;;;;;;;;;;;;;;5005989;28;852;-62
2021/04/26 07:25:27;;;;;;;;;;;;;;;;;;5021199;28;1445;-62
2021/04/26 07:27:52;;;;;;;;;;;;;;;;;;5024969;28;1228;-61
2021/04/26 07:30:18;;;;;;;;;;;;;;;;;;5023878;28;1218;-61
2021/04/26 07:32:44;;;;;;;;;;;;;;;;;;5024733;28;1277;-60
2021/04/26 07:35:12;;;;;;;;;;;;;;;;;;5024309;28;1206;-61
2021/04/26 07:37:38;;;;;;;;;;;;;;;;;;5022507;28;1985;-61
2021/04/26 07:40:04;;;;;;;;;;;;;;;;;;5023556;28;1084;-59
2021/04/26 07:42:29;;;;;;;;;;;;;;;;;;5019226;28;1354;-59
2021/04/26 07:44:55;;;;;;;;;;;;;;;;;;5024557;28;1263;-58
2021/04/26 07:47:20;;;;;;;;;;;;;;;;;;5023306;28;1248;-59
2021/04/26 07:49:46;;;;;;;;;;;;;;;;;;5022031;28;1105;-59
2021/04/26 07:52:11;;;;;;;;;;;;;;;;;;5022844;28;1228;-58
2021/04/26 07:54:37;;;;;;;;;;;;;;;;;;5021034;28;1208;-59
2021/04/26 07:57:02;;;;;;;;;;;;;;;;;;5022585;28;1905;-59
2021/04/26 07:59:29;;;;;;;;;;;;;;;;;;5023796;28;1164;-58
2021/04/26 08:01:54;;;;;;;;;;;;;;;;;;5025145;28;1176;-60
2021/04/26 08:04:20;;;;;;;;;;;;;;;;;;5024329;28;1314;-59
2021/04/26 08:06:45;;;;;;;;;;;;;;;;;;5023474;28;1088;-59
2021/04/26 08:09:10;;;;;;;;;;;;;;;;;;5024196;28;1290;-60
2021/04/26 08:11:36;;;;;;;;;;;;;;;;;;5024100;28;1378;-62
2021/04/26 08:14:01;;;;;;;;;;;;;;;;;;5028350;28;1171;-60
2021/04/26 08:16:27;;;;;;;;;;;;;;;;;;5027966;28;1894;-61
2021/04/26 08:18:52;;;;;;;;;;;;;;;;;;5028117;28;1433;-60
2021/04/26 08:21:18;;;;;;;;;;;;;;;;;;5028638;28;1044;-59
2021/04/26 08:23:43;;;;;;;;;;;;;;;;;;5027407;28;1127;-60
2021/04/26 08:26:11;;;;;;;;;;;;;;;;;;5027290;28;1330;-60
2021/04/26 08:28:37;;;;;;;;;;;;;;;;;;5026928;28;1017;-59
2021/04/26 08:31:06;;;;;;;;;;;;;;;;;;5027703;28;1235;-59
2021/04/26 08:33:32;;;;;;;;;;;;;;;;;;5028181;28;827;-60
2021/04/26 08:35:57;;;;;;;;;;;;;;;;;;5027783;28;1965;-63
2021/04/26 08:38:22;;;;;;;;;;;;;;;;;;5028641;28;890;-61
2021/04/26 08:40:48;;;;;;;;;;;;;;;;;;5019071;28;1327;-59
2021/04/26 08:43:13;;;;;;;;;;;;;;;;;;5022885;28;1045;-60
2021/04/26 08:45:39;;;;;;;;;;;;;;;;;;5027673;28;812;-59
2021/04/26 08:48:05;;;;;;;;;;;;;;;;;;5027209;28;886;-60
2021/04/26 08:50:31;;;;;;;;;;;;;;;;;;5024665;28;1743;-60
2021/04/26 08:52:56;;;;;;;;;;;;;;;;;;5026138;28;1219;-59
2021/04/26 08:55:22;;;;;;;;;;;;;;;;;;5029450;28;1253;-60
2021/04/26 08:57:48;;;;;;;;;;;;;;;;;;5027073;28;1981;-61
2021/04/26 09:00:14;;;;;;;;;;;;;;;;;;5025153;28;1239;-61
2021/04/26 09:02:51;;;;;;;;;;;;;;;;;;5026485;28;1179;-59
2021/04/26 09:05:26;;;;;;;;;;;;;;;;;;5024123;28;1132;-59
2021/04/26 09:07:52;;;;;;;;;;;;;;;;;;5025286;28;1242;-60
2021/04/26 09:10:34;;;;;;;;;;;;;;;;;;5026657;28;1201;-60
2021/04/26 09:13:19;;;;;;;;;;;;;;;;;;5024584;28;1141;-60
2021/04/26 09:15:59;;;;;;;;;;;;;;;;;;5025392;28;1058;-60
2021/04/26 09:18:42;;;;;;;;;;;;;;;;;;5021162;28;1520;-61
2021/04/26 09:21:17;;;;;;;;;;;;;;;;;;5015172;28;1610;-62
2021/04/26 09:23:43;;;;;;;;;;;;;;;;;;5023861;28;1084;-65
2021/04/26 09:26:29;;;;;;;;;;;;;;;;;;5025245;28;1177;-60
2021/04/26 09:29:13;;;;;;;;;;;;;;;;;;5025856;28;1237;-60
2021/04/26 09:31:39;;;;;;;;;;;;;;;;;;5024142;28;1270;-59
2021/04/26 09:34:08;;;;;;;;;;;;;;;;;;5024672;28;1204;-61
2021/04/26 09:36:34;;;;;;;;;;;;;;;;;;5021124;28;1897;-59
2021/04/26 09:39:04;;;;;;;;;;;;;;;;;;5024956;28;1158;-60
2021/04/26 09:41:33;;;;;;;;;;;;;;;;;;5025350;28;1135;-60
2021/04/26 09:43:59;;;;;;;;;;;;;;;;;;5027161;28;1138;-61
2021/04/26 09:46:36;;;;;;;;;;;;;;;;;;5026223;28;1102;-60
2021/04/26 09:49:06;;;;;;;;;;;;;;;;;;5024215;28;1251;-62
2021/04/26 09:51:32;;;;;;;;;;;;;;;;;;5025976;28;1305;-64
2021/04/26 09:53:58;;;;;;;;;;;;;;;;;;5024595;28;1627;-62
2021/04/26 09:56:49;;;;;;;;;;;;;;;;;;5025281;28;1906;-60
2021/04/26 09:59:15;;;;;;;;;;;;;;;;;;5022610;28;1131;-61
2021/04/26 10:01:42;;;;;;;;;;;;;;;;;;5025972;28;1254;-59
2021/04/26 10:04:10;;;;;;;;;;;;;;;;;;5026192;28;1194;-59
2021/04/26 10:06:36;;;;;;;;;;;;;;;;;;5024489;28;1249;-59
2021/04/26 10:09:03;;;;;;;;;;;;;;;;;;5026036;28;1238;-58
2021/04/26 10:11:29;;;;;;;;;;;;;;;;;;5026216;28;824;-60
2021/04/26 10:14:14;;;;;;;;;;;;;;;;;;5026687;28;827;-59
2021/04/26 10:16:58;;;;;;;;;;;;;;;;;;5025034;28;1890;-61
2021/04/26 10:19:28;;;;;;;;;;;;;;;;;;5027149;28;1247;-61
2021/04/26 10:21:54;;;;;;;;;;;;;;;;;;5026621;28;1164;-60
2021/04/26 10:24:21;;;;;;;;;;;;;;;;;;5025940;28;883;-60
2021/04/26 10:26:47;;;;;;;;;;;;;;;;;;5025911;28;903;-59
2021/04/26 10:29:16;;;;;;;;;;;;;;;;;;5024968;28;847;-61
2021/04/26 10:31:57;;;;;;;;;;;;;;;;;;5026419;28;854;-60
2021/04/26 10:34:29;;;;;;;;;;;;;;;;;;5057483;28;838;-61
2021/04/26 10:37:00;;;;;;;;;;;;;;;;;;5026619;28;1890;-59
2021/04/26 10:39:27;;;;;;;;;;;;;;;;;;5058359;28;1283;-60
2021/04/26 10:41:57;;;;;;;;;;;;;;;;;;5026477;28;776;-60
2021/04/26 10:44:41;;;;;;;;;;;;;;;;;;5023468;28;1257;-63
2021/04/26 10:47:30;;;;;;;;;;;;;;;;;;5023684;28;1214;-68
2021/04/26 10:50:05;;;;;;;;;;;;;;;;;;5020754;28;1287;-61
2021/04/26 10:52:31;;;;;;;;;;;;;;;;;;5024451;28;1266;-60
2021/04/26 10:55:01;;;;;;;;;;;;;;;;;;5023996;28;1314;-64
2021/04/26 10:57:51;;;;;;;;;;;;;;;;;;5024804;28;1979;-63
2021/04/26 11:00:23;;;;;;;;;;;;;;;;;;5017370;28;1333;-66
2021/04/26 11:02:55;;;;;;;;;;;;;;;;;;5024031;28;1302;-61
2021/04/26 11:05:23;;;;;;;;;;;;;;;;;;5023871;28;1243;-60
2021/04/26 11:07:54;;;;;;;;;;;;;;;;;;5023811;28;1298;-68
2021/04/26 11:10:28;;;;;;;;;;;;;;;;;;5022325;28;1151;-61
2021/04/26 11:12:54;;;;;;;;;;;;;;;;;;5022163;28;1228;-61
2021/04/26 11:15:21;;;;;;;;;;;;;;;;;;5023852;28;1215;-67
2021/04/26 11:17:47;;;;;;;;;;;;;;;;;;5023072;28;1894;-65
2021/04/26 11:20:19;;;;;;;;;;;;;;;;;;5021642;28;1346;-61
2021/04/26 11:22:46;;;;;;;;;;;;;;;;;;5018739;28;1682;-62
2021/04/26 11:25:30;;;;;;;;;;;;;;;;;;5021414;28;1305;-61
2021/04/26 11:27:57;;;;;;;;;;;;;;;;;;5022863;28;1221;-64
2021/04/26 11:30:23;;;;;;;;;;;;;;;;;;5021089;28;1444;-60
2021/04/26 11:33:00;;;;;;;;;;;;;;;;;;5021836;28;1368;-60
2021/04/26 11:35:26;;;;;;;;;;;;;;;;;;5024896;28;1173;-61
2021/04/26 11:37:52;;;;;;;;;;;;;;;;;;5021534;28;1894;-62
2021/04/26 11:40:19;;;;;;;;;;;;;;;;;;5022001;28;1122;-60
2021/04/26 11:42:45;;;;;;;;;;;;;;;;;;5021606;28;1134;-60
2021/04/26 11:45:11;;;;;;;;;;;;;;;;;;5023156;28;1300;-61
2021/04/26 11:47:36;;;;;;;;;;;;;;;;;;5026391;28;1111;-61
2021/04/26 11:50:03;;;;;;;;;;;;;;;;;;5025750;28;1345;-60
2021/04/26 11:52:30;;;;;;;;;;;;;;;;;;5026537;28;1222;-61
2021/04/26 11:54:55;;;;;;;;;;;;;;;;;;5028781;28;1261;-60
2021/04/26 11:57:22;;;;;;;;;;;;;;;;;;5028229;28;1991;-66
2021/04/26 11:59:48;;;;;;;;;;;;;;;;;;5027012;28;1283;-62
2021/04/26 12:02:22;;;;;;;;;;;;;;;;;;5024116;28;1754;-62
2021/04/26 12:04:48;;;;;;;;;;;;;;;;;;5027544;28;1129;-62
2021/04/26 12:07:13;;;;;;;;;;;;;;;;;;5027532;28;1028;-61
2021/04/26 12:09:39;;;;;;;;;;;;;;;;;;5026450;28;1255;-61
2021/04/26 12:12:06;;;;;;;;;;;;;;;;;;5028106;28;1140;-60
2021/04/26 12:14:31;;;;;;;;;;;;;;;;;;5026640;28;1300;-59
2021/04/26 12:17:12;;;;;;;;;;;;;;;;;;5029146;28;1889;-64
2021/04/26 12:19:38;;;;;;;;;;;;;;;;;;5028034;28;1324;-60
2021/04/26 12:22:03;;;;;;;;;;;;;;;;;;5027755;28;1179;-61
2021/04/26 12:24:29;;;;;;;;;;;;;;;;;;5028180;28;1278;-60
2021/04/26 12:26:54;;;;;;;;;;;;;;;;;;5025562;28;1235;-59
2021/04/26 12:29:29;;;;;;;;;;;;;;;;;;5027572;28;1060;-60
2021/04/26 12:32:11;;;;;;;;;;;;;;;;;;5028342;28;1010;-61
2021/04/26 12:34:55;;;;;;;;;;;;;;;;;;5008825;28;1263;-59
2021/04/26 12:37:22;;;;;;;;;;;;;;;;;;5025860;28;1989;-58
2021/04/26 12:39:48;;;;;;;;;;;;;;;;;;5027830;28;1278;-59
2021/04/26 12:42:14;;;;;;;;;;;;;;;;;;5027652;28;862;-59
2021/04/26 12:44:40;;;;;;;;;;;;;;;;;;5040974;28;1154;-61
2021/04/26 12:47:24;;;;;;;;;;;;;;;;;;5047885;28;879;-59
2021/04/26 12:50:08;;;;;;;;;;;;;;;;;;5047507;28;791;-59
2021/04/26 12:52:34;;;;;;;;;;;;;;;;;;5047549;28;891;-60
2021/04/26 12:55:11;;;;;;;;;;;;;;;;;;5045947;28;848;-59
2021/04/26 12:57:36;;;;;;;;;;;;;;;;;;5043149;28;1893;-66
2021/04/26 13:00:03;;;;;;;;;;;;;;;;;;5023286;28;1505;-67
2021/04/26 13:02:29;;;;;;;;;;;;;;;;;;5025993;28;807;-59
2021/04/26 13:04:58;;;;;;;;;;;;;;;;;;5026602;28;828;-59
2021/04/26 13:07:25;;;;;;;;;;;;;;;;;;5026135;28;1068;-59
2021/04/26 13:10:19;;;;;;;;;;;;;;;;;;5006896;28;777;-59
2021/04/26 13:12:59;;;;;;;;;;;;;;;;;;4998091;28;1662;-60
2021/04/26 13:15:25;;;;;;;;;;;;;;;;;;5007859;28;1428;-60
2021/04/26 13:17:51;;;;;;;;;;;;;;;;;;5018884;28;1983;-60
2021/04/26 13:20:17;;;;;;;;;;;;;;;;;;5026584;28;912;-60
2021/04/26 13:22:42;;;;;;;;;;;;;;;;;;5025859;28;1200;-60
2021/04/26 13:25:08;;;;;;;;;;;;;;;;;;5027234;28;811;-59
2021/04/26 13:27:47;;;;;;;;;;;;;;;;;;5027378;28;807;-60
2021/04/26 13:30:14;;;;;;;;;;;;;;;;;;5040926;28;846;-60
2021/04/26 13:32:40;;;;;;;;;;;;;;;;;;5026730;28;1070;-59
2021/04/26 13:35:06;;;;;;;;;;;;;;;;;;5025726;28;1195;-59
2021/04/26 13:37:32;;;;;;;;;;;;;;;;;;5026031;28;1886;-60
2021/04/26 13:39:57;;;;;;;;;;;;;;;;;;5026250;28;1203;-62
2021/04/26 13:42:22;;;;;;;;;;;;;;;;;;5027512;28;1388;-60
2021/04/26 13:44:48;;;;;;;;;;;;;;;;;;5027001;28;1081;-60
2021/04/26 13:47:13;;;;;;;;;;;;;;;;;;5023798;28;1441;-59
2021/04/26 13:49:39;;;;;;;;;;;;;;;;;;5025487;28;1215;-62
2021/04/26 13:52:05;;;;;;;;;;;;;;;;;;5024056;28;1212;-59
2021/04/26 13:54:30;;;;;;;;;;;;;;;;;;5026131;28;1124;-60
2021/04/26 13:56:56;;;;;;;;;;;;;;;;;;5026663;28;1906;-60
2021/04/26 13:59:21;;;;;;;;;;;;;;;;;;5025853;28;1179;-61
2021/04/26 14:01:46;;;;;;;;;;;;;;;;;;5022008;28;1559;-60
2021/04/26 14:04:12;;;;;;;;;;;;;;;;;;5025643;28;1239;-60
2021/04/26 14:06:37;;;;;;;;;;;;;;;;;;5023939;28;1838;-62
2021/04/26 14:09:07;;;;;;;;;;;;;;;;;;5022349;28;1248;-61
2021/04/26 14:11:32;;;;;;;;;;;;;;;;;;5023905;28;1341;-60
2021/04/26 14:13:58;;;;;;;;;;;;;;;;;;5023920;28;1274;-60
2021/04/26 14:16:32;;;;;;;;;;;;;;;;;;5027628;28;1897;-60
2021/04/26 14:18:59;;;;;;;;;;;;;;;;;;5023677;28;1401;-60
2021/04/26 14:21:25;;;;;;;;;;;;;;;;;;5026486;28;1207;-60
2021/04/26 14:23:51;;;;;;;;;;;;;;;;;;5024367;28;1346;-62
2021/04/26 14:26:17;;;;;;;;;;;;;;;;;;5023067;28;1417;-62
2021/04/26 14:28:43;;;;;;;;;;;;;;;;;;5024796;28;2403;-63
2021/04/26 14:31:08;;;;;;;;;;;;;;;;;;5024781;28;1306;-64
2021/04/26 14:33:34;;;;;;;;;;;;;;;;;;5023979;28;1338;-61
2021/04/26 14:36:02;;;;;;;;;;;;;;;;;;5023465;28;1245;-61
2021/04/26 14:38:28;;;;;;;;;;;;;;;;;;5023824;28;1171;-62
2021/04/26 14:40:53;;;;;;;;;;;;;;;;;;5024869;28;1381;-60
2021/04/26 14:43:19;;;;;;;;;;;;;;;;;;5024931;28;1245;-61
2021/04/26 14:45:45;;;;;;;;;;;;;;;;;;5024565;28;1296;-60
2021/04/26 14:48:10;;;;;;;;;;;;;;;;;;5023827;28;1179;-59
2021/04/26 14:50:36;;;;;;;;;;;;;;;;;;5025709;28;1156;-59
2021/04/26 14:53:01;;;;;;;;;;;;;;;;;;4968416;28;10322;-60
2021/04/26 14:55:27;;;;;;;;;;;;;;;;;;5046130;28;1088;-63
2021/04/26 14:57:53;;;;;;;;;;;;;;;;;;5017432;28;2268;-62
2021/04/26 15:00:19;;;;;;;;;;;;;;;;;;5006538;28;1190;-60
2021/04/26 15:02:47;;;;;;;;;;;;;;;;;;5025105;28;908;-63
2021/04/26 15:05:12;;;;;;;;;;;;;;;;;;5022936;28;1216;-61
2021/04/26 15:07:39;;;;;;;;;;;;;;;;;;5024392;28;1180;-60
2021/04/26 15:10:05;;;;;;;;;;;;;;;;;;5024252;28;1320;-61
2021/04/26 15:12:31;;;;;;;;;;;;;;;;;;5023399;28;1116;-64
2021/04/26 15:14:57;;;;;;;;;;;;;;;;;;5022649;28;1318;-62
2021/04/26 15:17:23;;;;;;;;;;;;;;;;;;5025759;28;1890;-63
2021/04/26 15:19:48;;;;;;;;;;;;;;;;;;5025112;28;1258;-60
2021/04/26 15:22:14;;;;;;;;;;;;;;;;;;5029945;28;1221;-60
2021/04/26 15:24:40;;;;;;;;;;;;;;;;;;5028458;28;1434;-61
2021/04/26 15:27:06;;;;;;;;;;;;;;;;;;5029358;28;1214;-60
2021/04/26 15:29:32;;;;;;;;;;;;;;;;;;5029527;28;1128;-61
2021/04/26 15:31:57;;;;;;;;;;;;;;;;;;5032552;28;1544;-62
2021/04/26 15:34:23;;;;;;;;;;;;;;;;;;5028092;28;1318;-60
2021/04/26 15:36:49;;;;;;;;;;;;;;;;;;5027704;28;1967;-60
2021/04/26 15:39:16;;;;;;;;;;;;;;;;;;5032190;28;1203;-61
2021/04/26 15:41:42;;;;;;;;;;;;;;;;;;5033332;28;1381;-65
2021/04/26 15:44:09;;;;;;;;;;;;;;;;;;5033181;28;1338;-60
2021/04/26 15:46:35;;;;;;;;;;;;;;;;;;5028139;28;811;-60
2021/04/26 15:49:01;;;;;;;;;;;;;;;;;;5028934;28;902;-60
2021/04/26 15:51:26;;;;;;;;;;;;;;;;;;5027993;28;2117;-60
2021/04/26 15:53:52;;;;;;;;;;;;;;;;;;5030265;28;1255;-60
2021/04/26 15:56:17;;;;;;;;;;;;;;;;;;5037284;28;1980;-63
2021/04/26 15:58:43;;;;;;;;;;;;;;;;;;5026763;28;1227;-61
2021/04/26 16:01:08;;;;;;;;;;;;;;;;;;5033668;28;1243;-61
2021/04/26 16:03:34;;;;;;;;;;;;;;;;;;5027263;28;1180;-62
2021/04/26 16:05:59;;;;;;;;;;;;;;;;;;5027453;28;1380;-61
2021/04/26 16:08:24;;;;;;;;;;;;;;;;;;5027531;28;1206;-61
2021/04/26 16:10:50;;;;;;;;;;;;;;;;;;5026712;28;1237;-65
2021/04/26 16:13:15;;;;;;;;;;;;;;;;;;5028567;28;1501;-62
2021/04/26 16:15:42;;;;;;;;;;;;;;;;;;5027799;28;1346;-61
2021/04/26 16:18:07;;;;;;;;;;;;;;;;;;5027018;28;1993;-62
2021/04/26 16:20:33;;;;;;;;;;;;;;;;;;5026308;28;1246;-64
2021/04/26 16:22:59;;;;;;;;;;;;;;;;;;5021927;28;1545;-60
2021/04/26 16:25:24;;;;;;;;;;;;;;;;;;5031047;28;1321;-62
2021/04/26 16:27:50;;;;;;;;;;;;;;;;;;5029326;28;1360;-61
2021/04/26 16:30:15;;;;;;;;;;;;;;;;;;5021894;28;1523;-60
2021/04/26 16:32:41;;;;;;;;;;;;;;;;;;5025318;28;1239;-60
2021/04/26 16:35:07;;;;;;;;;;;;;;;;;;5026149;28;1245;-60
2021/04/26 16:37:32;;;;;;;;;;;;;;;;;;5025722;28;1977;-62
2021/04/26 16:39:58;;;;;;;;;;;;;;;;;;5025156;28;1446;-63
2021/04/26 16:42:24;;;;;;;;;;;;;;;;;;5027753;28;1293;-60
2021/04/26 16:44:50;;;;;;;;;;;;;;;;;;5026617;28;1249;-60
2021/04/26 16:47:16;;;;;;;;;;;;;;;;;;5032377;28;1223;-60
2021/04/26 16:49:42;;;;;;;;;;;;;;;;;;5031767;28;1230;-60
2021/04/26 16:52:08;;;;;;;;;;;;;;;;;;5035878;28;1383;-63
2021/04/26 16:54:33;;;;;;;;;;;;;;;;;;5033759;28;1165;-63
2021/04/26 16:56:59;;;;;;;;;;;;;;;;;;5029701;28;1902;-62
2021/04/26 16:59:24;;;;;;;;;;;;;;;;;;5031522;28;1203;-63
2021/04/26 17:01:53;;;;;;;;;;;;;;;;;;5029255;28;1483;-62
2021/04/26 17:04:18;;;;;;;;;;;;;;;;;;5028501;28;1528;-60
2021/04/26 17:06:44;;;;;;;;;;;;;;;;;;5029133;28;1311;-66
2021/04/26 17:09:09;;;;;;;;;;;;;;;;;;5028254;28;1274;-60